Agadir, Morocco

7:18 AM WEST on September 01, 2015 (GMT +0100)
Al-Massira | | Change Station
CLOSE
Current Station
Airport
Location: Agadir Al Massira,
Elevation: 243 ft
Nearby Weather Stations

Elev 243 ft 30.33 °N, 9.40 °W | Updated 18 minutes ago

Mostly Cloudy
Mostly Cloudy
70 °F
Feels Like 70 °F
N
0
Wind Variable Wind from North

Today
High -- | Low -- °F
--% Chance of Precip.
Yesterday
High -- | Low -- °F
Precip. -- in
7:14 AM 8:01 PM
Waning Gibbous, 91% visible
Pressure 30.04 in
Visibility 6.2 miles
Clouds Mostly Cloudy 1600 ft
Dew Point 66 °F
Humidity 88%
Rainfall 0.00 in
Snow Depth Not available.
UV 0 out of 12
Pollen Not available.
Air Quality Not available.
Flu Activity Not available.
METAR GMAD 010600Z 00000KT 9999 BKN016 21/19 Q1017 NOSIG
Pressure 30.04 in
Visibility 6.2 miles
Clouds Mostly Cloudy 1600 ft
Dew Point 66 °F
Humidity 88%
Rainfall 0.00 in
Snow Depth Not available.
UV 0 out of 12
Pollen Not available.
Air Quality Not available.
Flu Activity Not available.
METAR GMAD 010600Z 00000KT 9999 BKN016 21/19 Q1017 NOSIG

10-Day Weather Forecast

×

Almanac

Astronomy

Sep. 01, 2015 Rise Set
Actual Time
Civil Twilight
Nautical Twilight
Astronomical Twilight
Moon
Length of Visible Light
Length of Day
Tomorrow will be .
, % of the Moon is Illuminated

Today's Extremes

Country Highs Country Lows

Community

WunderPhotos

Upload Photos

1,851,487 photos uploaded!

WunderBlogs® & News

Nearby

Air Quality

  Air Quality AQ Index Pollutant
Not available.

Snow Depth

Station Depth Elevation

Earthquake Activity

City Distance Mag. Time & Date
Minimum magnitude displayed is 2.5.

Coastal Water Temperatures

Place Temperature

Stations

Nearby Weather Stations

Station Location Temp. Windchill Dew Point Humidity Wind Precip. Elev Updated Type